sensor_id;sensor_type;location;lat;lon;timestamp;pressure;altitude;pressure_sealevel;temperature;humidity
45621;BME280;31345;51.522;10.702;2022-11-20T00:01:28;98749.06;;;-6.32;100.00
45621;BME280;31345;51.522;10.702;2022-11-20T00:03:57;98741.38;;;-6.12;100.00
45621;BME280;31345;51.522;10.702;2022-11-20T00:06:26;98743.16;;;-6.37;100.00
45621;BME280;31345;51.522;10.702;2022-11-20T00:08:56;98755.06;;;-6.61;100.00
45621;BME280;31345;51.522;10.702;2022-11-20T00:11:25;98763.56;;;-6.70;100.00
45621;BME280;31345;51.522;10.702;2022-11-20T00:13:56;98760.16;;;-6.57;100.00
45621;BME280;31345;51.522;10.702;2022-11-20T00:16:25;98747.41;;;-6.46;100.00
45621;BME280;31345;51.522;10.702;2022-11-20T00:18:53;98742.28;;;-6.41;100.00
45621;BME280;31345;51.522;10.702;2022-11-20T00:21:23;98742.38;;;-6.60;100.00
45621;BME280;31345;51.522;10.702;2022-11-20T00:23:52;98733.88;;;-6.65;100.00
45621;BME280;31345;51.522;10.702;2022-11-20T00:26:22;98729.66;;;-6.66;100.00
45621;BME280;31345;51.522;10.702;2022-11-20T00:28:51;98736.44;;;-6.77;100.00
45621;BME280;31345;51.522;10.702;2022-11-20T00:31:21;98728.81;;;-6.70;100.00
45621;BME280;31345;51.522;10.702;2022-11-20T00:33:49;98727.91;;;-6.45;100.00
45621;BME280;31345;51.522;10.702;2022-11-20T00:36:18;98734.69;;;-6.46;100.00
45621;BME280;31345;51.522;10.702;2022-11-20T00:38:50;98740.69;;;-6.75;100.00
45621;BME280;31345;51.522;10.702;2022-11-20T00:41:18;98725.38;;;-6.56;100.00
45621;BME280;31345;51.522;10.702;2022-11-20T00:43:46;98725.38;;;-6.51;100.00
45621;BME280;31345;51.522;10.702;2022-11-20T00:46:15;98725.34;;;-6.41;100.00
45621;BME280;31345;51.522;10.702;2022-11-20T00:48:45;98733.03;;;-6.72;100.00
45621;BME280;31345;51.522;10.702;2022-11-20T00:51:16;98725.47;;;-6.94;100.00
45621;BME280;31345;51.522;10.702;2022-11-20T00:53:44;98726.31;;;-6.96;100.00
45621;BME280;31345;51.522;10.702;2022-11-20T00:56:14;98733.94;;;-6.81;100.00
45621;BME280;31345;51.522;10.702;2022-11-20T00:58:44;98732.19;;;-6.63;100.00
45621;BME280;31345;51.522;10.702;2022-11-20T01:01:14;98740.69;;;-6.62;100.00
45621;BME280;31345;51.522;10.702;2022-11-20T01:03:43;98744.06;;;-6.76;100.00
45621;BME280;31345;51.522;10.702;2022-11-20T01:06:15;98731.38;;;-6.93;100.00
45621;BME280;31345;51.522;10.702;2022-11-20T01:08:43;98731.38;;;-7.02;100.00
45621;BME280;31345;51.522;10.702;2022-11-20T01:11:14;98722.88;;;-6.66;100.00
45621;BME280;31345;51.522;10.702;2022-11-20T01:13:43;98722.03;;;-6.79;100.00
45621;BME280;31345;51.522;10.702;2022-11-20T01:16:13;98722.91;;;-6.86;100.00
45621;BME280;31345;51.522;10.702;2022-11-20T01:18:43;98728.84;;;-6.88;100.00
45621;BME280;31345;51.522;10.702;2022-11-20T01:21:16;98729.66;;;-6.82;100.00
45621;BME280;31345;51.522;10.702;2022-11-20T01:23:44;98730.53;;;-6.81;100.00
45621;BME280;31345;51.522;10.702;2022-11-20T01:26:16;98733.06;;;-6.83;100.00
45621;BME280;31345;51.522;10.702;2022-11-20T01:28:44;98727.19;;;-7.03;100.00
45621;BME280;31345;51.522;10.702;2022-11-20T01:31:14;98733.06;;;-6.81;100.00
45621;BME280;31345;51.522;10.702;2022-11-20T01:33:43;98727.97;;;-6.86;100.00
45621;BME280;31345;51.522;10.702;2022-11-20T01:36:13;98721.25;;;-7.06;100.00
45621;BME280;31345;51.522;10.702;2022-11-20T01:38:42;98722.06;;;-7.02;100.00
45621;BME280;31345;51.522;10.702;2022-11-20T01:41:11;98721.22;;;-6.98;100.00
45621;BME280;31345;51.522;10.702;2022-11-20T01:43:59;98717.00;;;-6.99;100.00
45621;BME280;31345;51.522;10.702;2022-11-20T01:46:26;98718.69;;;-6.95;100.00
45621;BME280;31345;51.522;10.702;2022-11-20T01:48:57;98706.03;;;-7.10;100.00
45621;BME280;31345;51.522;10.702;2022-11-20T01:51:33;98711.09;;;-7.04;100.00
45621;BME280;31345;51.522;10.702;2022-11-20T01:54:06;98711.94;;;-7.25;100.00
45621;BME280;31345;51.522;10.702;2022-11-20T01:56:38;98706.88;;;-7.44;100.00
45621;BME280;31345;51.522;10.702;2022-11-20T01:59:09;98706.84;;;-7.39;100.00
45621;BME280;31345;51.522;10.702;2022-11-20T02:01:38;98709.41;;;-7.28;100.00
45621;BME280;31345;51.522;10.702;2022-11-20T02:04:07;98695.00;;;-7.22;100.00
45621;BME280;31345;51.522;10.702;2022-11-20T02:06:40;98698.38;;;-7.31;100.00
45621;BME280;31345;51.522;10.702;2022-11-20T02:09:10;98692.47;;;-7.26;100.00
45621;BME280;31345;51.522;10.702;2022-11-20T02:11:38;98688.25;;;-7.51;100.00
45621;BME280;31345;51.522;10.702;2022-11-20T02:14:06;98687.38;;;-7.54;100.00
45621;BME280;31345;51.522;10.702;2022-11-20T02:16:36;98681.47;;;-7.13;100.00
45621;BME280;31345;51.522;10.702;2022-11-20T02:19:07;98677.19;;;-7.17;100.00
45621;BME280;31345;51.522;10.702;2022-11-20T02:21:44;98677.22;;;-7.11;100.00
45621;BME280;31345;51.522;10.702;2022-11-20T02:24:17;98671.28;;;-7.38;100.00
45621;BME280;31345;51.522;10.702;2022-11-20T02:26:50;98668.78;;;-7.44;100.00
45621;BME280;31345;51.522;10.702;2022-11-20T02:29:24;98667.94;;;-7.38;100.00
45621;BME280;31345;51.522;10.702;2022-11-20T02:31:54;98666.22;;;-7.21;100.00
45621;BME280;31345;51.522;10.702;2022-11-20T02:34:22;98666.19;;;-7.08;100.00
45621;BME280;31345;51.522;10.702;2022-11-20T02:36:52;98672.09;;;-6.95;100.00
45621;BME280;31345;51.522;10.702;2022-11-20T02:39:23;98664.47;;;-6.92;100.00
45621;BME280;31345;51.522;10.702;2022-11-20T02:41:53;98666.19;;;-7.05;100.00
45621;BME280;31345;51.522;10.702;2022-11-20T02:44:22;98665.34;;;-7.06;100.00
45621;BME280;31345;51.522;10.702;2022-11-20T02:46:50;98677.16;;;-6.92;100.00
45621;BME280;31345;51.522;10.702;2022-11-20T02:49:18;98676.34;;;-7.08;100.00
45621;BME280;31345;51.522;10.702;2022-11-20T02:51:46;98679.75;;;-7.44;100.00
45621;BME280;31345;51.522;10.702;2022-11-20T02:54:14;98678.91;;;-7.22;100.00
45621;BME280;31345;51.522;10.702;2022-11-20T02:56:43;98685.69;;;-7.16;100.00
45621;BME280;31345;51.522;10.702;2022-11-20T02:59:11;98675.50;;;-7.60;100.00
45621;BME280;31345;51.522;10.702;2022-11-20T03:01:38;98680.59;;;-7.60;100.00
45621;BME280;31345;51.522;10.702;2022-11-20T03:04:06;98689.06;;;-7.60;100.00
45621;BME280;31345;51.522;10.702;2022-11-20T03:06:34;98682.28;;;-7.29;100.00
45621;BME280;31345;51.522;10.702;2022-11-20T03:09:02;98679.75;;;-7.09;100.00
45621;BME280;31345;51.522;10.702;2022-11-20T03:11:30;98679.78;;;-7.50;100.00
45621;BME280;31345;51.522;10.702;2022-11-20T03:14:01;98672.13;;;-7.78;100.00
45621;BME280;31345;51.522;10.702;2022-11-20T03:16:31;98667.88;;;-7.85;100.00
45621;BME280;31345;51.522;10.702;2022-11-20T03:18:59;98662.81;;;-7.60;100.00
45621;BME280;31345;51.522;10.702;2022-11-20T03:21:27;98659.44;;;-7.50;100.00
45621;BME280;31345;51.522;10.702;2022-11-20T03:23:55;98663.69;;;-7.44;100.00
45621;BME280;31345;51.522;10.702;2022-11-20T03:26:25;98665.38;;;-7.45;100.00
45621;BME280;31345;51.522;10.702;2022-11-20T03:28:55;98657.75;;;-7.52;100.00
45621;BME280;31345;51.522;10.702;2022-11-20T03:31:27;98664.53;;;-7.36;100.00
45621;BME280;31345;51.522;10.702;2022-11-20T03:33:56;98667.91;;;-7.68;100.00
45621;BME280;31345;51.522;10.702;2022-11-20T03:36:24;98667.91;;;-7.55;100.00
45621;BME280;31345;51.522;10.702;2022-11-20T03:38:53;98668.75;;;-7.57;100.00
45621;BME280;31345;51.522;10.702;2022-11-20T03:41:23;98661.13;;;-7.69;100.00
45621;BME280;31345;51.522;10.702;2022-11-20T03:43:52;98658.59;;;-7.52;100.00
45621;BME280;31345;51.522;10.702;2022-11-20T03:46:21;98656.88;;;-7.81;100.00
45621;BME280;31345;51.522;10.702;2022-11-20T03:48:50;98654.38;;;-7.75;100.00
45621;BME280;31345;51.522;10.702;2022-11-20T03:51:20;98657.75;;;-7.45;100.00
45621;BME280;31345;51.522;10.702;2022-11-20T03:53:50;98654.31;;;-7.93;100.00
45621;BME280;31345;51.522;10.702;2022-11-20T03:56:21;98650.13;;;-7.60;100.00
45621;BME280;31345;51.522;10.702;2022-11-20T03:58:49;98654.34;;;-7.70;100.00
45621;BME280;31345;51.522;10.702;2022-11-20T04:01:18;98654.38;;;-7.65;100.00
45621;BME280;31345;51.522;10.702;2022-11-20T04:03:48;98658.59;;;-7.63;100.00
45621;BME280;31345;51.522;10.702;2022-11-20T04:06:19;98657.72;;;-7.82;100.00
45621;BME280;31345;51.522;10.702;2022-11-20T04:08:47;98660.31;;;-7.54;100.00
45621;BME280;31345;51.522;10.702;2022-11-20T04:11:16;98651.81;;;-7.76;100.00
45621;BME280;31345;51.522;10.702;2022-11-20T04:13:47;98648.38;;;-7.97;100.00
45621;BME280;31345;51.522;10.702;2022-11-20T04:16:15;98643.31;;;-8.00;100.00
45621;BME280;31345;51.522;10.702;2022-11-20T04:18:44;98636.56;;;-7.92;100.00
45621;BME280;31345;51.522;10.702;2022-11-20T04:21:12;98639.09;;;-7.93;100.00
45621;BME280;31345;51.522;10.702;2022-11-20T04:23:41;98635.69;;;-7.96;100.00
45621;BME280;31345;51.522;10.702;2022-11-20T04:26:11;98632.31;;;-8.05;100.00
45621;BME280;31345;51.522;10.702;2022-11-20T04:28:40;98635.69;;;-8.08;100.00
45621;BME280;31345;51.522;10.702;2022-11-20T04:31:09;98637.38;;;-8.15;100.00
45621;BME280;31345;51.522;10.702;2022-11-20T04:33:38;98637.41;;;-7.91;100.00
45621;BME280;31345;51.522;10.702;2022-11-20T04:36:09;98626.44;;;-7.81;100.00
45621;BME280;31345;51.522;10.702;2022-11-20T04:38:38;98627.28;;;-7.74;100.00
45621;BME280;31345;51.522;10.702;2022-11-20T04:41:09;98616.28;;;-7.75;100.00
45621;BME280;31345;51.522;10.702;2022-11-20T04:43:40;98617.97;;;-7.86;100.00
45621;BME280;31345;51.522;10.702;2022-11-20T04:46:07;98623.91;;;-7.79;100.00
45621;BME280;31345;51.522;10.702;2022-11-20T04:48:35;98623.00;;;-7.96;100.00
45621;BME280;31345;51.522;10.702;2022-11-20T04:51:04;98623.81;;;-8.25;100.00
45621;BME280;31345;51.522;10.702;2022-11-20T04:53:32;98625.53;;;-8.17;100.00
45621;BME280;31345;51.522;10.702;2022-11-20T04:56:00;98621.34;;;-8.03;100.00
45621;BME280;31345;51.522;10.702;2022-11-20T04:58:30;98623.84;;;-8.00;100.00
45621;BME280;31345;51.522;10.702;2022-11-20T05:01:01;98618.81;;;-7.93;100.00
45621;BME280;31345;51.522;10.702;2022-11-20T05:03:30;98621.31;;;-7.98;100.00
45621;BME280;31345;51.522;10.702;2022-11-20T05:06:00;98628.97;;;-7.90;100.00
45621;BME280;31345;51.522;10.702;2022-11-20T05:08:28;98618.81;;;-8.03;100.00
45621;BME280;31345;51.522;10.702;2022-11-20T05:11:00;98626.34;;;-8.28;100.00
45621;BME280;31345;51.522;10.702;2022-11-20T05:13:54;98634.81;;;-8.15;100.00
45621;BME280;31345;51.522;10.702;2022-11-20T05:16:24;98630.63;;;-8.14;100.00
45621;BME280;31345;51.522;10.702;2022-11-20T05:18:53;98628.09;;;-8.05;100.00
45621;BME280;31345;51.522;10.702;2022-11-20T05:21:22;98621.31;;;-8.18;100.00
45621;BME280;31345;51.522;10.702;2022-11-20T05:23:50;98625.50;;;-8.28;100.00
45621;BME280;31345;51.522;10.702;2022-11-20T05:26:20;98622.97;;;-8.21;100.00
45621;BME280;31345;51.522;10.702;2022-11-20T05:28:49;98624.66;;;-8.19;100.00
45621;BME280;31345;51.522;10.702;2022-11-20T05:31:20;98617.97;;;-8.00;100.00
45621;BME280;31345;51.522;10.702;2022-11-20T05:33:48;98615.34;;;-8.33;100.00
45621;BME280;31345;51.522;10.702;2022-11-20T05:36:16;98616.16;;;-8.48;100.00
45621;BME280;31345;51.522;10.702;2022-11-20T05:38:44;98622.19;;;-7.98;100.00
45621;BME280;31345;51.522;10.702;2022-11-20T05:41:14;98623.88;;;-7.87;100.00
45621;BME280;31345;51.522;10.702;2022-11-20T05:43:44;98617.09;;;-8.10;100.00
45621;BME280;31345;51.522;10.702;2022-11-20T05:46:14;98617.00;;;-8.43;100.00
45621;BME280;31345;51.522;10.702;2022-11-20T05:48:44;98617.03;;;-8.38;100.00
45621;BME280;31345;51.522;10.702;2022-11-20T05:51:14;98614.44;;;-8.49;100.00
45621;BME280;31345;51.522;10.702;2022-11-20T05:53:42;98619.56;;;-8.38;100.00
45621;BME280;31345;51.522;10.702;2022-11-20T05:56:12;98609.41;;;-8.40;100.00
45621;BME280;31345;51.522;10.702;2022-11-20T05:58:40;98606.03;;;-8.39;100.00
45621;BME280;31345;51.522;10.702;2022-11-20T06:01:11;98607.66;;;-8.52;100.00
45621;BME280;31345;51.522;10.702;2022-11-20T06:03:39;98610.25;;;-8.33;100.00
45621;BME280;31345;51.522;10.702;2022-11-20T06:06:10;98609.38;;;-8.51;100.00
45621;BME280;31345;51.522;10.702;2022-11-20T06:08:37;98611.03;;;-8.59;100.00
45621;BME280;31345;51.522;10.702;2022-11-20T06:11:06;98617.84;;;-8.39;100.00
45621;BME280;31345;51.522;10.702;2022-11-20T06:13:35;98617.03;;;-8.35;100.00
45621;BME280;31345;51.522;10.702;2022-11-20T06:16:03;98611.13;;;-8.31;100.00
45621;BME280;31345;51.522;10.702;2022-11-20T06:18:32;98615.34;;;-8.24;100.00
45621;BME280;31345;51.522;10.702;2022-11-20T06:21:02;98616.22;;;-8.31;100.00
45621;BME280;31345;51.522;10.702;2022-11-20T06:23:32;98616.97;;;-8.52;100.00
45621;BME280;31345;51.522;10.702;2022-11-20T06:26:02;98624.59;;;-8.46;100.00
45621;BME280;31345;51.522;10.702;2022-11-20T06:28:31;98629.72;;;-8.35;100.00
45621;BME280;31345;51.522;10.702;2022-11-20T06:30:59;98630.59;;;-8.27;100.00
45621;BME280;31345;51.522;10.702;2022-11-20T06:33:27;98634.00;;;-8.17;100.00
45621;BME280;31345;51.522;10.702;2022-11-20T06:35:56;98633.16;;;-8.14;100.00
45621;BME280;31345;51.522;10.702;2022-11-20T06:38:24;98632.19;;;-8.54;100.00
45621;BME280;31345;51.522;10.702;2022-11-20T06:40:54;98632.16;;;-8.65;100.00
45621;BME280;31345;51.522;10.702;2022-11-20T06:43:24;98631.25;;;-8.71;100.00
45621;BME280;31345;51.522;10.702;2022-11-20T06:45:53;98633.81;;;-8.67;100.00
45621;BME280;31345;51.522;10.702;2022-11-20T06:48:21;98633.09;;;-8.30;100.00
45621;BME280;31345;51.522;10.702;2022-11-20T06:50:49;98631.34;;;-8.51;100.00
45621;BME280;31345;51.522;10.702;2022-11-20T06:53:17;98622.88;;;-8.58;100.00
45621;BME280;31345;51.522;10.702;2022-11-20T06:55:46;98622.13;;;-8.35;100.00
45621;BME280;31345;51.522;10.702;2022-11-20T06:58:16;98621.28;;;-8.23;100.00
45621;BME280;31345;51.522;10.702;2022-11-20T07:00:44;98629.69;;;-8.43;100.00
45621;BME280;31345;51.522;10.702;2022-11-20T07:03:13;98626.22;;;-8.64;100.00
45621;BME280;31345;51.522;10.702;2022-11-20T07:05:41;98622.13;;;-8.24;100.00
45621;BME280;31345;51.522;10.702;2022-11-20T07:08:08;98623.00;;;-8.16;100.00
45621;BME280;31345;51.522;10.702;2022-11-20T07:10:36;98626.41;;;-7.97;100.00
45621;BME280;31345;51.522;10.702;2022-11-20T07:13:04;98617.94;;;-8.05;100.00
45621;BME280;31345;51.522;10.702;2022-11-20T07:15:34;98619.59;;;-8.27;100.00
45621;BME280;31345;51.522;10.702;2022-11-20T07:18:02;98613.59;;;-8.48;100.00
45621;BME280;31345;51.522;10.702;2022-11-20T07:20:30;98617.88;;;-8.31;100.00
45621;BME280;31345;51.522;10.702;2022-11-20T07:22:58;98619.63;;;-8.12;100.00
45621;BME280;31345;51.522;10.702;2022-11-20T07:25:27;98611.16;;;-8.01;100.00
45621;BME280;31345;51.522;10.702;2022-11-20T07:27:57;98615.41;;;-7.97;100.00
45621;BME280;31345;51.522;10.702;2022-11-20T07:30:26;98610.31;;;-8.06;100.00
45621;BME280;31345;51.522;10.702;2022-11-20T07:32:56;98611.13;;;-8.15;100.00
45621;BME280;31345;51.522;10.702;2022-11-20T07:35:24;98610.31;;;-7.97;100.00
45621;BME280;31345;51.522;10.702;2022-11-20T07:37:52;98612.03;;;-7.90;100.00
45621;BME280;31345;51.522;10.702;2022-11-20T07:40:20;98608.63;;;-8.00;100.00
45621;BME280;31345;51.522;10.702;2022-11-20T07:42:48;98601.88;;;-7.90;100.00
45621;BME280;31345;51.522;10.702;2022-11-20T07:45:17;98606.97;;;-7.79;100.00
45621;BME280;31345;51.522;10.702;2022-11-20T07:47:45;98612.06;;;-7.59;100.00
45621;BME280;31345;51.522;10.702;2022-11-20T07:50:16;98608.66;;;-7.56;100.00
45621;BME280;31345;51.522;10.702;2022-11-20T07:52:46;98605.28;;;-7.57;100.00
45621;BME280;31345;51.522;10.702;2022-11-20T07:55:14;98613.75;;;-7.50;100.00
45621;BME280;31345;51.522;10.702;2022-11-20T07:57:42;98605.28;;;-7.42;100.00
45621;BME280;31345;51.522;10.702;2022-11-20T08:00:11;98604.41;;;-7.34;100.00
45621;BME280;31345;51.522;10.702;2022-11-20T08:02:40;98603.50;;;-7.03;100.00
45621;BME280;31345;51.522;10.702;2022-11-20T08:05:09;98596.69;;;-6.95;100.00
45621;BME280;31345;51.522;10.702;2022-11-20T08:07:41;98595.78;;;-6.78;100.00
45621;BME280;31345;51.522;10.702;2022-11-20T08:10:11;98594.94;;;-6.75;100.00
45621;BME280;31345;51.522;10.702;2022-11-20T08:12:44;98598.28;;;-6.64;100.00
45621;BME280;31345;51.522;10.702;2022-11-20T08:15:30;98594.88;;;-6.58;100.00
45621;BME280;31345;51.522;10.702;2022-11-20T08:18:02;98592.28;;;-6.52;100.00
45621;BME280;31345;51.522;10.702;2022-11-20T08:20:31;98595.59;;;-6.37;100.00
45621;BME280;31345;51.522;10.702;2022-11-20T08:23:02;98605.69;;;-6.22;100.00
45621;BME280;31345;51.522;10.702;2022-11-20T08:25:33;98601.41;;;-6.14;100.00
45621;BME280;31345;51.522;10.702;2022-11-20T08:28:03;98607.31;;;-6.07;100.00
45621;BME280;31345;51.522;10.702;2022-11-20T08:30:32;98610.63;;;-5.94;100.00
45621;BME280;31345;51.522;10.702;2022-11-20T08:33:02;98618.16;;;-5.81;100.00
45621;BME280;31345;51.522;10.702;2022-11-20T08:35:33;98621.50;;;-5.75;100.00
45621;BME280;31345;51.522;10.702;2022-11-20T08:38:03;98631.59;;;-5.60;100.00
45621;BME280;31345;51.522;10.702;2022-11-20T08:40:32;98626.41;;;-5.51;100.00
45621;BME280;31345;51.522;10.702;2022-11-20T08:43:00;98625.50;;;-5.39;100.00
45621;BME280;31345;51.522;10.702;2022-11-20T08:45:28;98622.03;;;-5.30;100.00
45621;BME280;31345;51.522;10.702;2022-11-20T08:48:00;98628.81;;;-5.29;100.00
45621;BME280;31345;51.522;10.702;2022-11-20T08:50:28;98620.13;;;-5.11;100.00
45621;BME280;31345;51.522;10.702;2022-11-20T08:53:03;98627.53;;;-4.88;100.00
45621;BME280;31345;51.522;10.702;2022-11-20T08:55:31;98623.28;;;-4.86;100.00
45621;BME280;31345;51.522;10.702;2022-11-20T08:58:03;98623.91;;;-4.66;100.00
45621;BME280;31345;51.522;10.702;2022-11-20T09:00:31;98628.22;;;-4.72;100.00
45621;BME280;31345;51.522;10.702;2022-11-20T09:03:00;98638.13;;;-4.50;100.00
45621;BME280;31345;51.522;10.702;2022-11-20T09:05:29;98625.41;;;-4.51;100.00
45621;BME280;31345;51.522;10.702;2022-11-20T09:07:57;98629.56;;;-4.44;100.00
45621;BME280;31345;51.522;10.702;2022-11-20T09:10:27;98630.41;;;-4.40;100.00
45621;BME280;31345;51.522;10.702;2022-11-20T09:12:55;98618.44;;;-4.37;100.00
45621;BME280;31345;51.522;10.702;2022-11-20T09:15:23;98622.59;;;-4.29;100.00
45621;BME280;31345;51.522;10.702;2022-11-20T09:17:52;98612.25;;;-4.22;100.00
45621;BME280;31345;51.522;10.702;2022-11-20T09:20:20;98617.38;;;-4.22;100.00
45621;BME280;31345;51.522;10.702;2022-11-20T09:22:49;98615.56;;;-4.13;100.00
45621;BME280;31345;51.522;10.702;2022-11-20T09:25:17;98604.56;;;-4.17;100.00
45621;BME280;31345;51.522;10.702;2022-11-20T09:27:47;98613.81;;;-4.10;100.00
45621;BME280;31345;51.522;10.702;2022-11-20T09:30:15;98607.59;;;-3.90;100.00
45621;BME280;31345;51.522;10.702;2022-11-20T09:32:43;98604.72;;;-3.70;100.00
45621;BME280;31345;51.522;10.702;2022-11-20T09:35:11;98604.59;;;-3.62;100.00
45621;BME280;31345;51.522;10.702;2022-11-20T09:37:40;98609.00;;;-3.70;100.00
45621;BME280;31345;51.522;10.702;2022-11-20T09:40:18;98610.44;;;-3.53;100.00
45621;BME280;31345;51.522;10.702;2022-11-20T09:42:52;98602.63;;;-3.46;100.00
45621;BME280;31345;51.522;10.702;2022-11-20T09:45:28;98595.22;;;-3.61;100.00
45621;BME280;31345;51.522;10.702;2022-11-20T09:48:10;98597.50;;;-3.46;100.00
45621;BME280;31345;51.522;10.702;2022-11-20T09:50:45;98591.91;;;-3.18;100.00
45621;BME280;31345;51.522;10.702;2022-11-20T09:53:26;98585.72;;;-3.03;100.00
45621;BME280;31345;51.522;10.702;2022-11-20T09:56:01;98582.41;;;-3.09;100.00
45621;BME280;31345;51.522;10.702;2022-11-20T09:58:34;98580.81;;;-2.71;100.00
45621;BME280;31345;51.522;10.702;2022-11-20T10:01:10;98581.88;;;-2.81;100.00
45621;BME280;31345;51.522;10.702;2022-11-20T10:03:46;98579.56;;;-2.95;100.00
45621;BME280;31345;51.522;10.702;2022-11-20T10:06:21;98573.50;;;-2.90;100.00
45621;BME280;31345;51.522;10.702;2022-11-20T10:08:58;98580.16;;;-2.81;100.00
45621;BME280;31345;51.522;10.702;2022-11-20T10:11:34;98574.09;;;-2.75;100.00
45621;BME280;31345;51.522;10.702;2022-11-20T10:14:12;98560.72;;;-2.47;100.00
45621;BME280;31345;51.522;10.702;2022-11-20T10:16:49;98549.22;;;-2.29;100.00
45621;BME280;31345;51.522;10.702;2022-11-20T10:19:41;98549.13;;;-2.24;100.00
45621;BME280;31345;51.522;10.702;2022-11-20T10:22:21;98543.44;;;-1.99;100.00
45621;BME280;31345;51.522;10.702;2022-11-20T10:24:56;98552.66;;;-1.90;100.00
45621;BME280;31345;51.522;10.702;2022-11-20T10:27:37;98550.88;;;-1.88;100.00
45621;BME280;31345;51.522;10.702;2022-11-20T10:30:11;98548.34;;;-1.90;100.00
45621;BME280;31345;51.522;10.702;2022-11-20T10:32:41;98544.41;;;-1.68;100.00
45621;BME280;31345;51.522;10.702;2022-11-20T10:35:19;98543.78;;;-1.77;100.00
45621;BME280;31345;51.522;10.702;2022-11-20T10:37:51;98540.59;;;-1.18;100.00
45621;BME280;31345;51.522;10.702;2022-11-20T10:40:27;98547.63;;;-1.27;100.00
45621;BME280;31345;51.522;10.702;2022-11-20T10:42:59;98544.53;;;-1.38;100.00
45621;BME280;31345;51.522;10.702;2022-11-20T10:45:38;98533.69;;;-1.16;100.00
45621;BME280;31345;51.522;10.702;2022-11-20T10:48:12;98540.78;;;-1.26;100.00
45621;BME280;31345;51.522;10.702;2022-11-20T10:50:55;98540.00;;;-1.28;100.00
45621;BME280;31345;51.522;10.702;2022-11-20T10:53:40;98534.66;;;-1.20;100.00
45621;BME280;31345;51.522;10.702;2022-11-20T10:56:17;98538.97;;;-1.23;100.00
45621;BME280;31345;51.522;10.702;2022-11-20T10:58:54;98546.78;;;-0.94;100.00
45621;BME280;31345;51.522;10.702;2022-11-20T11:01:29;98548.31;;;-0.87;100.00
45621;BME280;31345;51.522;10.702;2022-11-20T11:03:58;98535.34;;;-0.82;100.00
45621;BME280;31345;51.522;10.702;2022-11-20T11:06:32;98535.72;;;-0.96;100.00
45621;BME280;31345;51.522;10.702;2022-11-20T11:09:06;98533.47;;;-0.77;100.00
45621;BME280;31345;51.522;10.702;2022-11-20T11:11:38;98524.50;;;-0.92;100.00
45621;BME280;31345;51.522;10.702;2022-11-20T11:14:07;98525.53;;;-0.99;100.00
45621;BME280;31345;51.522;10.702;2022-11-20T11:16:48;98517.69;;;-0.94;100.00
45621;BME280;31345;51.522;10.702;2022-11-20T11:19:17;98511.13;;;-1.03;100.00
45621;BME280;31345;51.522;10.702;2022-11-20T11:21:46;98507.03;;;-0.80;100.00
45621;BME280;31345;51.522;10.702;2022-11-20T11:24:20;98505.38;;;-0.81;100.00
45621;BME280;31345;51.522;10.702;2022-11-20T11:26:58;98504.94;;;-0.96;100.00
45621;BME280;31345;51.522;10.702;2022-11-20T11:29:26;98505.59;;;-1.21;100.00
45621;BME280;31345;51.522;10.702;2022-11-20T11:32:05;98502.53;;;-1.34;100.00
45621;BME280;31345;51.522;10.702;2022-11-20T11:34:33;98501.53;;;-1.28;100.00
45621;BME280;31345;51.522;10.702;2022-11-20T11:37:02;98498.97;;;-1.28;100.00
45621;BME280;31345;51.522;10.702;2022-11-20T11:39:32;98503.06;;;-1.23;100.00
45621;BME280;31345;51.522;10.702;2022-11-20T11:42:01;98497.78;;;-1.48;100.00
45621;BME280;31345;51.522;10.702;2022-11-20T11:44:31;98494.97;;;-1.39;100.00
45621;BME280;31345;51.522;10.702;2022-11-20T11:47:22;98491.53;;;-1.39;100.00
45621;BME280;31345;51.522;10.702;2022-11-20T11:50:02;98489.84;;;-1.39;100.00
45621;BME280;31345;51.522;10.702;2022-11-20T11:52:31;98491.41;;;-1.33;100.00
45621;BME280;31345;51.522;10.702;2022-11-20T11:55:04;98486.69;;;-1.49;100.00
45621;BME280;31345;51.522;10.702;2022-11-20T11:57:41;98485.50;;;-1.37;100.00
45621;BME280;31345;51.522;10.702;2022-11-20T12:00:14;98480.88;;;-1.24;100.00
45621;BME280;31345;51.522;10.702;2022-11-20T12:02:56;98469.59;;;-1.18;100.00
45621;BME280;31345;51.522;10.702;2022-11-20T12:05:27;98467.28;;;-1.26;100.00
45621;BME280;31345;51.522;10.702;2022-11-20T12:07:58;98468.69;;;-1.47;100.00
45621;BME280;31345;51.522;10.702;2022-11-20T12:10:40;98476.56;;;-1.22;100.00
45621;BME280;31345;51.522;10.702;2022-11-20T12:13:22;98475.16;;;-1.02;100.00
45621;BME280;31345;51.522;10.702;2022-11-20T12:15:53;98479.31;;;-0.98;100.00
45621;BME280;31345;51.522;10.702;2022-11-20T12:18:22;98482.13;;;-1.07;100.00
45621;BME280;31345;51.522;10.702;2022-11-20T12:20:59;98469.88;;;-0.97;100.00
45621;BME280;31345;51.522;10.702;2022-11-20T12:23:36;98473.72;;;-1.12;99.32
45621;BME280;31345;51.522;10.702;2022-11-20T12:26:15;98478.06;;;-1.14;99.81
45621;BME280;31345;51.522;10.702;2022-11-20T12:28:58;98464.34;;;-1.13;99.30
45621;BME280;31345;51.522;10.702;2022-11-20T12:31:47;98461.59;;;-1.07;100.00
45621;BME280;31345;51.522;10.702;2022-11-20T12:34:36;98446.78;;;-0.97;100.00
45621;BME280;31345;51.522;10.702;2022-11-20T12:37:17;98445.97;;;-0.98;100.00
45621;BME280;31345;51.522;10.702;2022-11-20T12:39:49;98438.56;;;-1.09;100.00
45621;BME280;31345;51.522;10.702;2022-11-20T12:42:26;98443.97;;;-1.18;100.00
45621;BME280;31345;51.522;10.702;2022-11-20T12:45:26;98442.31;;;-0.90;100.00
45621;BME280;31345;51.522;10.702;2022-11-20T12:48:19;98443.03;;;-0.85;99.88
45621;BME280;31345;51.522;10.702;2022-11-20T12:51:09;98446.69;;;-0.64;99.14
45621;BME280;31345;51.522;10.702;2022-11-20T12:53:46;98441.03;;;-0.75;99.11
45621;BME280;31345;51.522;10.702;2022-11-20T12:56:24;98441.81;;;-0.73;100.00
45621;BME280;31345;51.522;10.702;2022-11-20T12:59:05;98441.53;;;-0.64;99.21
45621;BME280;31345;51.522;10.702;2022-11-20T13:01:40;98441.25;;;-0.83;99.48